Ty Woods — WDB5332 — position and weather

sailwx.info

Track history (hours):
 
Tides and Currents Weather Stations Pressure Air Temp Water Temp Dewpoint Dewpoint Depression Visibility Wind Speed Wind Dir Waves Ship Positions

Ty Woods

Owner: San Diego Towing & Marine Services,Inc., San Diego, CA. More information available from US FCC via Universal Licensing System and Coast Guard Vessel Documentation Center.

Last reported at 2017-Apr-06 17:54 UTC. Time now 2017-Apr-23 13:48 UTC.
Position N 33°46' W 118°13'.
Warning: this ship's position is 16 days out of date.

; draft 2 m.

Type: Ship. MMSI: 366908460.

Date/timePositionNaut miles runAvg speedWind from/ knotsBaromVisibWave heightAir tempDewpointWater temp
2017-Apr-06 17:54N 33°46' W 118°13'2 4.2
2017-Apr-06 17:30N 33°45' W 118°13'816.3
2017-Apr-06 17:00N 33°38' W 118°06'918.1
2017-Apr-06 16:30N 33°31' W 118°00'918.3
2017-Apr-06 16:00N 33°24' W 117°54'1018.5
2017-Apr-06 15:30N 33°16' W 117°47'918.6
2017-Apr-06 15:00N 33°08' W 117°41'918.4
2017-Apr-06 14:30N 33°01' W 117°35'1818.2
2017-Apr-06 13:30N 32°46' W 117°22'918.5
2017-Apr-06 13:00N 32°39' W 117°15'510.8
2017-Apr-06 12:30N 32°43' W 117°11'2 0.1
2017-Apr-05 23:59N 32°42' W 117°09'0 0.4
2017-Apr-05 23:19N 32°41' W 117°09'3 9.6
2017-Apr-05 23:00N 32°43' W 117°12'713.4
2017-Apr-05 22:30N 32°37' W 117°16'3 5.7
2017-Apr-05 22:00N 32°36' W 117°19'1 1.2
2017-Apr-05 21:30N 32°36' W 117°19'0 0.2
2017-Apr-05 21:00N 32°36' W 117°19'0 0.0
2017-Apr-05 20:30N 32°36' W 117°19'0 0.1
2017-Apr-05 20:00N 32°36' W 117°20'2 3.9
2017-Apr-05 19:30N 32°37' W 117°17'0 0.5
2017-Apr-05 19:00N 32°37' W 117°17'0 0.8
2017-Apr-05 18:27N 32°37' W 117°17'2 4.4
2017-Apr-05 18:00N 32°38' W 117°15'6 0.3
2017-Apr-04 23:31N 32°41' W 117°09'0 5.1
2017-Apr-04 23:30N 32°41' W 117°09'0 0.5
2017-Apr-04 22:48N 32°42' W 117°09'310.9
2017-Apr-04 22:31N 32°43' W 117°13'612.5
2017-Apr-04 22:00N 32°37' W 117°17'2 4.2
2017-Apr-04 21:30N 32°37' W 117°19'0 0.2
2017-Apr-04 21:00N 32°37' W 117°19'0 0.2
2017-Apr-04 20:30N 32°37' W 117°19'0 0.4
2017-Apr-04 19:55N 32°37' W 117°19'0 0.5
2017-Apr-04 19:30N 32°37' W 117°19'0 0.4
2017-Apr-04 19:00N 32°37' W 117°19'0 0.5
2017-Apr-04 18:30N 32°37' W 117°19'4 7.4
2017-Apr-04 18:00N 32°38' W 117°15'6 4.7
2017-Apr-04 16:44N 32°42' W 117°09'0 0.0
2017-Apr-04 16:30N 32°42' W 117°09'  
2017-Apr-01 20:23N 32°42' W 117°10'4 9.7
2017-Apr-01 20:01N 32°40' W 117°14'4 5.1
2017-Apr-01 19:17N 32°38' W 117°17'0 0.2
2017-Apr-01 18:55N 32°38' W 117°18'0 0.3
2017-Apr-01 18:30N 32°38' W 117°17'8 6.3
2017-Apr-01 17:14N 32°42' W 117°09'311.0
2017-Apr-01 17:00N 32°43' W 117°12'713.8
2017-Apr-01 16:31N 32°38' W 117°17'1 1.3
2017-Apr-01 16:00N 32°37' W 117°17'3 5.3
2017-Apr-01 15:30N 32°39' W 117°15'510.0
2017-Apr-01 14:59N 32°42' W 117°10'1 0.1
2017-Apr-01 06:32N 32°42' W 117°10'113.3
2017-Apr-01 06:29N 32°43' W 117°11'611.6
2017-Apr-01 06:00N 32°38' W 117°15'2 4.5
2017-Apr-01 05:30N 32°38' W 117°17'4 7.8
2017-Apr-01 05:00N 32°40' W 117°14'4 6.8
2017-Apr-01 04:24N 32°42' W 117°09'0 0.0
2017-Apr-01 04:00N 32°42' W 117°09'0 0.0
2017-Apr-01 03:30N 32°42' W 117°09'4 8.0
2017-Apr-01 03:00N 32°41' W 117°14'4 8.6
2017-Apr-01 02:30N 32°38' W 117°17'0 0.2
2017-Apr-01 02:00N 32°38' W 117°17'4 8.1
2017-Apr-01 01:30N 32°40' W 117°14'4 0.2
2017-Mar-31 06:14N 32°42' W 117°09'311.2
2017-Mar-31 05:59N 32°43' W 117°12'613.0
2017-Mar-31 05:30N 32°39' W 117°18'1019.7
2017-Mar-31 05:00N 32°47' W 117°24'920.1
2017-Mar-31 04:34N 32°54' W 117°30'2019.9
2017-Mar-31 03:33N 33°11' W 117°43'2019.8
2017-Mar-31 02:33N 33°27' W 117°56'  
Track history (hours):
 
Tides and Currents Weather Stations Pressure Air Temp Water Temp Dewpoint Dewpoint Depression Visibility Wind Speed Wind Dir Waves Ship Positions

Ty Woods

Owner: San Diego Towing & Marine Services,Inc., San Diego, CA. More information available from US FCC via Universal Licensing System and Coast Guard Vessel Documentation Center.

Last reported at 2017-Apr-06 17:54 UTC. Time now 2017-Apr-23 13:48 UTC.
Position N 33°46' W 118°13'.
Warning: this ship's position is 16 days out of date.

; draft 2 m.

Type: Ship. MMSI: 366908460.

Date/timePositionNaut miles runAvg speedWind from/ knotsBaromVisibWave heightAir tempDewpointWater temp
2017-Apr-06 17:54N 33°46' W 118°13'2 4.2
2017-Apr-06 17:30N 33°45' W 118°13'816.3
2017-Apr-06 17:00N 33°38' W 118°06'918.1
2017-Apr-06 16:30N 33°31' W 118°00'918.3
2017-Apr-06 16:00N 33°24' W 117°54'1018.5
2017-Apr-06 15:30N 33°16' W 117°47'918.6
2017-Apr-06 15:00N 33°08' W 117°41'918.4
2017-Apr-06 14:30N 33°01' W 117°35'1818.2
2017-Apr-06 13:30N 32°46' W 117°22'918.5
2017-Apr-06 13:00N 32°39' W 117°15'510.8
2017-Apr-06 12:30N 32°43' W 117°11'2 0.1
2017-Apr-05 23:59N 32°42' W 117°09'0 0.4
2017-Apr-05 23:19N 32°41' W 117°09'3 9.6
2017-Apr-05 23:00N 32°43' W 117°12'713.4
2017-Apr-05 22:30N 32°37' W 117°16'3 5.7
2017-Apr-05 22:00N 32°36' W 117°19'1 1.2
2017-Apr-05 21:30N 32°36' W 117°19'0 0.2
2017-Apr-05 21:00N 32°36' W 117°19'0 0.0
2017-Apr-05 20:30N 32°36' W 117°19'0 0.1
2017-Apr-05 20:00N 32°36' W 117°20'2 3.9
2017-Apr-05 19:30N 32°37' W 117°17'0 0.5
2017-Apr-05 19:00N 32°37' W 117°17'0 0.8
2017-Apr-05 18:27N 32°37' W 117°17'2 4.4
2017-Apr-05 18:00N 32°38' W 117°15'6 0.3
2017-Apr-04 23:31N 32°41' W 117°09'0 5.1
2017-Apr-04 23:30N 32°41' W 117°09'0 0.5
2017-Apr-04 22:48N 32°42' W 117°09'310.9
2017-Apr-04 22:31N 32°43' W 117°13'612.5
2017-Apr-04 22:00N 32°37' W 117°17'2 4.2
2017-Apr-04 21:30N 32°37' W 117°19'0 0.2
2017-Apr-04 21:00N 32°37' W 117°19'0 0.2
2017-Apr-04 20:30N 32°37' W 117°19'0 0.4
2017-Apr-04 19:55N 32°37' W 117°19'0 0.5
2017-Apr-04 19:30N 32°37' W 117°19'0 0.4
2017-Apr-04 19:00N 32°37' W 117°19'0 0.5
2017-Apr-04 18:30N 32°37' W 117°19'4 7.4
2017-Apr-04 18:00N 32°38' W 117°15'6 4.7
2017-Apr-04 16:44N 32°42' W 117°09'0 0.0
2017-Apr-04 16:30N 32°42' W 117°09'  
2017-Apr-01 20:23N 32°42' W 117°10'4 9.7
2017-Apr-01 20:01N 32°40' W 117°14'4 5.1
2017-Apr-01 19:17N 32°38' W 117°17'0 0.2
2017-Apr-01 18:55N 32°38' W 117°18'0 0.3
2017-Apr-01 18:30N 32°38' W 117°17'8 6.3
2017-Apr-01 17:14N 32°42' W 117°09'311.0
2017-Apr-01 17:00N 32°43' W 117°12'713.8
2017-Apr-01 16:31N 32°38' W 117°17'1 1.3
2017-Apr-01 16:00N 32°37' W 117°17'3 5.3
2017-Apr-01 15:30N 32°39' W 117°15'510.0
2017-Apr-01 14:59N 32°42' W 117°10'1 0.1
2017-Apr-01 06:32N 32°42' W 117°10'113.3
2017-Apr-01 06:29N 32°43' W 117°11'611.6
2017-Apr-01 06:00N 32°38' W 117°15'2 4.5
2017-Apr-01 05:30N 32°38' W 117°17'4 7.8
2017-Apr-01 05:00N 32°40' W 117°14'4 6.8
2017-Apr-01 04:24N 32°42' W 117°09'0 0.0
2017-Apr-01 04:00N 32°42' W 117°09'0 0.0
2017-Apr-01 03:30N 32°42' W 117°09'4 8.0
2017-Apr-01 03:00N 32°41' W 117°14'4 8.6
2017-Apr-01 02:30N 32°38' W 117°17'0 0.2
2017-Apr-01 02:00N 32°38' W 117°17'4 8.1
2017-Apr-01 01:30N 32°40' W 117°14'4 0.2
2017-Mar-31 06:14N 32°42' W 117°09'311.2
2017-Mar-31 05:59N 32°43' W 117°12'613.0
2017-Mar-31 05:30N 32°39' W 117°18'1019.7
2017-Mar-31 05:00N 32°47' W 117°24'920.1
2017-Mar-31 04:34N 32°54' W 117°30'2019.9
2017-Mar-31 03:33N 33°11' W 117°43'2019.8
2017-Mar-31 02:33N 33°27' W 117°56'  

Dump ship's entire track history